Time;durP1;ratioP1;P1;durP2;ratioP2;P2;SDS_P1;SDS_P2;PMS_P1;PMS_P2;Temp;Humidity;BMP_temperature;BMP_pressure;BME280_temperature;BME280_humidity;BME280_pressure;Samples;Min_cycle;Max_cycle;Signal;HPM_P1;HPM_P2
2021/12/06 00:01:57;;;;;;;16.70;5.53;;;;;;;10.92;nan;102772.16;4778406;29;20956;-87
2021/12/06 00:04:30;;;;;;;15.97;4.40;;;;;;;10.82;nan;102757.63;4822735;29;20465;-88
2021/12/06 00:07:01;;;;;;;15.07;4.10;;;;;;;10.79;nan;102760.66;4822982;29;20488;-88
2021/12/06 00:09:28;;;;;;;21.23;4.20;;;;;;;10.74;nan;102760.25;4807204;29;20994;-87
2021/12/06 00:11:58;;;;;;;11.03;3.83;;;;;;;10.65;nan;102747.44;4808197;29;20463;-88
2021/12/06 00:14:28;;;;;;;10.67;2.40;;;;;;;10.61;nan;102754.19;4793765;29;20828;-88
2021/12/06 00:17:04;;;;;;;10.77;2.83;;;;;;;10.52;nan;102749.59;4735865;30;20502;-88
2021/12/06 00:19:32;;;;;;;9.80;3.60;;;;;;;10.53;nan;102754.06;4749800;30;20464;-88
2021/12/06 00:22:00;;;;;;;12.30;3.80;;;;;;;10.48;nan;102748.16;4750166;30;20495;-87
2021/12/06 00:24:28;;;;;;;15.50;5.77;;;;;;;10.45;nan;102748.44;4750113;30;20464;-88
2021/12/06 00:26:56;;;;;;;10.20;2.57;;;;;;;10.39;nan;102741.69;4732442;30;20576;-88
2021/12/06 00:29:24;;;;;;;8.13;2.40;;;;;;;10.34;nan;102741.25;4736314;30;20465;-89
2021/12/06 00:31:52;;;;;;;10.33;2.10;;;;;;;10.25;nan;102732.03;4735842;30;20471;-88
2021/12/06 00:34:21;;;;;;;4.33;1.40;;;;;;;10.19;nan;102738.09;4750122;30;20460;-87
2021/12/06 00:37:04;;;;;;;12.13;2.27;;;;;;;10.19;nan;102739.97;4752722;30;20453;-87
2021/12/06 00:39:32;;;;;;;8.80;3.70;;;;;;;10.17;nan;102745.53;4753096;30;20970;-87
2021/12/06 00:42:03;;;;;;;12.33;4.40;;;;;;;10.16;nan;102738.34;4771837;29;20467;-87
2021/12/06 00:44:30;;;;;;;11.10;4.03;;;;;;;10.11;nan;102735.16;4841532;29;20449;-88
2021/12/06 00:46:58;;;;;;;14.60;2.20;;;;;;;10.05;nan;102733.00;4800672;29;20513;-86
2021/12/06 00:49:26;;;;;;;12.13;2.20;;;;;;;9.93;nan;102731.41;4792139;29;20473;-87
2021/12/06 00:51:54;;;;;;;8.40;3.17;;;;;;;9.90;nan;102726.22;4793256;29;20454;-87
2021/12/06 00:54:21;;;;;;;21.27;6.03;;;;;;;9.90;nan;102731.66;4793090;29;20458;-87
2021/12/06 00:56:49;;;;;;;10.47;2.80;;;;;;;9.87;nan;102719.16;4795989;29;20449;-87
2021/12/06 00:59:18;;;;;;;11.47;3.20;;;;;;;9.86;nan;102719.28;4795605;29;20469;-87
2021/12/06 01:01:46;;;;;;;12.30;2.60;;;;;;;9.82;nan;102712.38;4795975;29;20461;-87
2021/12/06 01:04:15;;;;;;;21.23;5.60;;;;;;;9.86;nan;102711.97;4810848;29;20464;-86
2021/12/06 01:06:43;;;;;;;14.13;3.80;;;;;;;9.89;nan;102725.34;4792711;29;21715;-87
2021/12/06 01:09:11;;;;;;;12.00;3.10;;;;;;;9.83;nan;102712.25;4783423;29;20457;-87
2021/12/06 01:11:39;;;;;;;7.53;2.77;;;;;;;9.77;nan;102696.44;4796035;29;20457;-88
2021/12/06 01:14:06;;;;;;;16.17;2.70;;;;;;;9.83;nan;102706.78;4796329;29;20949;-88
2021/12/06 01:16:34;;;;;;;10.67;2.90;;;;;;;9.81;nan;102713.41;4795736;29;20460;-87
2021/12/06 01:19:02;;;;;;;5.67;2.43;;;;;;;9.75;nan;102706.63;4811904;29;20897;-88
2021/12/06 01:22:04;;;;;;;6.40;2.10;;;;;;;9.76;nan;102712.97;4795697;29;20521;-87
2021/12/06 01:24:25;;;;;;;6.13;2.47;;;;;;;9.72;nan;102712.38;4813130;29;20457;-87
2021/12/06 01:27:30;;;;;;;9.90;2.80;;;;;;;9.71;nan;102710.66;4802595;29;20828;-88
2021/12/06 01:30:16;;;;;;;9.87;2.20;;;;;;;9.62;nan;102708.78;4824239;29;20478;-88
2021/12/06 01:33:06;;;;;;;10.60;2.67;;;;;;;9.57;nan;102702.84;4808077;29;20470;-87
2021/12/06 01:39:11;;;;;;;13.43;2.30;;;;;;;9.63;nan;102707.75;4805619;29;20458;-88
2021/12/06 01:41:21;;;;;;;10.90;2.80;;;;;;;9.66;nan;102721.97;4811914;29;20457;-88
2021/12/06 01:44:17;;;;;;;11.30;1.80;;;;;;;9.60;nan;102719.81;4792004;29;20463;-87
2021/12/06 01:46:48;;;;;;;9.67;2.50;;;;;;;9.42;nan;102715.16;4800627;29;21018;-87
2021/12/06 01:49:17;;;;;;;7.73;1.80;;;;;;;9.40;nan;102728.94;4816679;29;20472;-88
2021/12/06 01:51:44;;;;;;;6.20;1.80;;;;;;;9.37;nan;102725.63;4792096;29;20473;-87
2021/12/06 01:54:13;;;;;;;12.03;2.20;;;;;;;9.35;nan;102720.31;4792121;29;20469;-87
2021/12/06 01:56:40;;;;;;;12.23;2.10;;;;;;;9.31;nan;102719.69;4809781;29;20461;-88
2021/12/06 01:59:08;;;;;;;6.63;2.07;;;;;;;9.30;nan;102717.97;4780947;29;20464;-88
2021/12/06 02:01:36;;;;;;;10.13;3.27;;;;;;;9.26;nan;102721.09;4793382;29;20859;-88
2021/12/06 02:04:04;;;;;;;10.37;2.30;;;;;;;9.11;nan;102715.16;4782932;29;20454;-88
2021/12/06 02:06:32;;;;;;;11.87;3.40;;;;;;;9.11;nan;102720.63;4809889;29;20555;-87
2021/12/06 02:09:00;;;;;;;4.93;1.53;;;;;;;9.08;nan;102722.75;4793022;29;20469;-87
2021/12/06 02:11:32;;;;;;;13.30;1.70;;;;;;;9.05;nan;102720.28;4791781;29;20458;-87
2021/12/06 02:14:24;;;;;;;10.30;3.17;;;;;;;9.09;nan;102714.44;4782253;29;20465;-87
2021/12/06 02:17:09;;;;;;;6.10;2.40;;;;;;;9.09;nan;102724.47;4797965;29;20466;-87
2021/12/06 02:19:41;;;;;;;10.20;2.37;;;;;;;9.05;nan;102717.56;4810264;29;20464;-87
2021/12/06 02:22:12;;;;;;;9.40;2.47;;;;;;;9.07;nan;102723.75;4823967;29;20485;-87
2021/12/06 02:25:20;;;;;;;12.47;2.50;;;;;;;9.07;nan;102726.47;4824480;29;20540;-87
2021/12/06 02:27:50;;;;;;;4.80;1.90;;;;;;;9.05;nan;102712.09;4824495;29;20860;-86
2021/12/06 02:30:18;;;;;;;9.13;2.00;;;;;;;9.06;nan;102708.38;4809691;29;20461;-86
2021/12/06 02:32:47;;;;;;;7.23;2.13;;;;;;;9.01;nan;102708.81;4794676;29;20476;-87
2021/12/06 02:35:18;;;;;;;4.60;1.50;;;;;;;8.95;nan;102709.34;4809798;29;20453;-86
2021/12/06 02:37:47;;;;;;;4.80;2.23;;;;;;;8.96;nan;102716.53;4794782;29;20453;-87
2021/12/06 02:40:17;;;;;;;6.90;1.77;;;;;;;8.91;nan;102714.19;4794718;29;20463;-86
2021/12/06 02:42:46;;;;;;;4.70;1.70;;;;;;;8.92;nan;102732.28;4809476;29;20470;-87
2021/12/06 02:45:16;;;;;;;6.93;1.60;;;;;;;8.90;nan;102717.91;4809355;29;20525;-87
2021/12/06 02:47:48;;;;;;;6.37;1.73;;;;;;;8.82;nan;102704.09;4808889;29;20485;-87
2021/12/06 02:50:15;;;;;;;13.60;2.70;;;;;;;8.87;nan;102715.44;4794930;29;20465;-87
2021/12/06 02:52:43;;;;;;;6.23;2.40;;;;;;;8.84;nan;102729.38;4809062;29;20461;-87
2021/12/06 02:55:29;;;;;;;9.00;2.43;;;;;;;8.69;nan;102710.75;4824088;29;20513;-86
2021/12/06 02:58:13;;;;;;;3.23;1.47;;;;;;;8.77;nan;102749.13;4808464;29;20782;-87
2021/12/06 03:00:47;;;;;;;14.70;2.40;;;;;;;8.69;nan;102735.28;4837389;29;20835;-87
2021/12/06 03:03:16;;;;;;;8.57;2.63;;;;;;;8.72;nan;102744.06;4808877;29;20457;-86
2021/12/06 03:05:45;;;;;;;9.13;2.27;;;;;;;8.69;nan;102738.00;4838624;29;20464;-87
2021/12/06 03:08:13;;;;;;;11.80;2.27;;;;;;;8.68;nan;102737.13;4793937;29;21015;-87
2021/12/06 03:10:41;;;;;;;7.50;2.00;;;;;;;8.61;nan;102744.13;4808646;29;20464;-86
2021/12/06 03:13:20;;;;;;;8.07;2.13;;;;;;;8.50;nan;102733.25;4838674;29;20799;-87
2021/12/06 03:15:51;;;;;;;18.90;2.90;;;;;;;8.39;nan;102708.81;4838723;29;20464;-86
2021/12/06 03:18:36;;;;;;;5.17;1.60;;;;;;;8.43;nan;102730.22;4809327;29;20436;-87
2021/12/06 03:21:03;;;;;;;3.57;1.00;;;;;;;8.36;nan;102725.41;4808877;29;20462;-87
2021/12/06 03:23:32;;;;;;;5.60;1.80;;;;;;;8.32;nan;102722.94;4823394;29;21049;-89
2021/12/06 03:26:04;;;;;;;8.13;1.83;;;;;;;8.40;nan;102732.34;4806203;29;20469;-88
2021/12/06 03:28:43;;;;;;;5.53;1.17;;;;;;;8.39;nan;102736.06;4822095;29;20549;-87
2021/12/06 03:31:11;;;;;;;9.03;1.40;;;;;;;8.35;nan;102730.00;4779461;29;20466;-88
2021/12/06 03:33:40;;;;;;;5.50;1.30;;;;;;;8.31;nan;102726.63;4792428;29;20465;-88
2021/12/06 03:36:08;;;;;;;2.87;1.37;;;;;;;8.28;nan;102735.06;4808229;29;20832;-88
2021/12/06 03:38:39;;;;;;;6.30;1.67;;;;;;;8.28;nan;102740.50;4823325;29;20468;-87
2021/12/06 03:41:10;;;;;;;7.13;1.70;;;;;;;8.27;nan;102741.50;4778644;29;20956;-87
2021/12/06 03:43:38;;;;;;;7.77;1.70;;;;;;;8.22;nan;102738.31;4824622;29;20785;-87
2021/12/06 03:46:09;;;;;;;5.07;1.70;;;;;;;8.24;nan;102733.63;4806451;29;20457;-89
2021/12/06 03:48:36;;;;;;;5.43;1.43;;;;;;;8.22;nan;102726.56;4808240;29;20525;-87
2021/12/06 03:51:04;;;;;;;5.03;1.07;;;;;;;8.19;nan;102738.56;4808414;29;21003;-87
2021/12/06 03:53:32;;;;;;;9.70;1.40;;;;;;;8.19;nan;102724.09;4812710;29;20470;-88
2021/12/06 03:56:00;;;;;;;8.47;1.30;;;;;;;8.11;nan;102721.13;4798320;29;20449;-87
2021/12/06 03:58:34;;;;;;;9.93;2.03;;;;;;;8.14;nan;102724.47;4807494;29;20453;-90
2021/12/06 04:01:03;;;;;;;3.67;1.10;;;;;;;8.09;nan;102713.09;4794184;29;20453;-89
2021/12/06 04:03:35;;;;;;;5.63;1.50;;;;;;;8.17;nan;102732.38;4794768;29;20526;-89
2021/12/06 04:06:04;;;;;;;7.63;2.40;;;;;;;8.21;nan;102725.69;4779251;29;20514;-91
2021/12/06 04:08:33;;;;;;;7.23;1.33;;;;;;;8.19;nan;102727.69;4808102;29;20489;-89
2021/12/06 04:11:08;;;;;;;4.23;1.73;;;;;;;8.19;nan;102724.97;4793601;29;20450;-88
2021/12/06 04:17:17;;;;;;;144.47;48.50;;;;;;;8.09;nan;102712.22;4824097;29;21097;-89
2021/12/06 04:19:47;;;;;;;65.00;26.90;;;;;;;8.19;nan;102730.41;4793694;29;20453;-88
2021/12/06 04:22:15;;;;;;;33.00;14.77;;;;;;;8.16;nan;102729.78;4793412;29;20473;-89
2021/12/06 04:24:46;;;;;;;81.03;35.17;;;;;;;8.12;nan;102731.91;4780277;29;20828;-90
2021/12/06 04:27:15;;;;;;;16.70;6.80;;;;;;;8.07;nan;102733.31;4792767;29;20468;-89
2021/12/06 04:29:48;;;;;;;29.30;12.70;;;;;;;8.05;nan;102727.13;4808676;29;20872;-89
2021/12/06 04:32:17;;;;;;;14.17;4.60;;;;;;;7.98;nan;102726.75;4823354;29;20457;-89
2021/12/06 04:34:46;;;;;;;12.57;3.90;;;;;;;7.98;nan;102722.19;4807893;29;20476;-89
2021/12/06 04:37:22;;;;;;;9.73;2.23;;;;;;;8.03;nan;102718.22;4817981;29;20461;-90
2021/12/06 04:39:53;;;;;;;7.20;2.40;;;;;;;7.92;nan;102705.47;4789536;29;20464;-89
2021/12/06 04:42:23;;;;;;;9.07;2.37;;;;;;;7.87;nan;102700.44;4793539;29;20454;-88
2021/12/06 04:44:52;;;;;;;10.43;2.10;;;;;;;7.94;nan;102714.38;4790331;29;20458;-91
2021/12/06 04:47:19;;;;;;;5.47;1.87;;;;;;;7.96;nan;102712.41;4801964;29;20466;-90
2021/12/06 04:49:49;;;;;;;4.00;1.70;;;;;;;7.88;nan;102698.59;4778989;29;20457;-88
2021/12/06 04:52:17;;;;;;;7.93;2.20;;;;;;;7.93;nan;102715.38;4793194;29;20449;-89
2021/12/06 04:54:48;;;;;;;9.63;2.20;;;;;;;7.90;nan;102713.78;4718986;30;20468;-89
2021/12/06 04:57:30;;;;;;;10.93;2.47;;;;;;;7.91;nan;102725.53;4730122;30;20462;-90
2021/12/06 05:00:18;;;;;;;6.33;1.77;;;;;;;7.83;nan;102718.03;4715363;30;20970;-88
2021/12/06 05:03:30;;;;;;;5.03;1.90;;;;;;;7.88;nan;102731.25;4727588;30;20462;-89
2021/12/06 05:06:03;;;;;;;13.33;2.20;;;;;;;7.79;nan;102721.13;4729855;30;20966;-89
2021/12/06 05:08:34;;;;;;;6.67;2.30;;;;;;;7.71;nan;102718.16;4718518;30;20531;-89
2021/12/06 05:11:09;;;;;;;5.97;2.53;;;;;;;7.72;nan;102719.88;4715457;30;20470;-89
2021/12/06 05:13:40;;;;;;;5.50;2.00;;;;;;;7.70;nan;102716.44;4715746;30;20492;-90
2021/12/06 05:16:57;;;;;;;15.80;5.17;;;;;;;7.70;nan;102716.44;4722788;30;20462;-90
2021/12/06 05:19:56;;;;;;;10.07;4.10;;;;;;;7.74;nan;102723.34;4747261;30;20511;-88
2021/12/06 05:26:50;;;;;;;6.40;1.60;;;;;;;7.68;nan;102730.19;4710064;30;20504;-90
2021/12/06 05:29:24;;;;;;;8.70;1.70;;;;;;;7.55;nan;102722.16;4740393;30;20487;-89
2021/12/06 05:32:13;;;;;;;5.07;1.53;;;;;;;7.61;nan;102734.38;4705478;30;20469;-89
2021/12/06 05:35:04;;;;;;;8.00;1.20;;;;;;;7.52;nan;102716.06;4706099;30;20885;-89
2021/12/06 05:37:50;;;;;;;3.73;1.13;;;;;;;7.49;nan;102728.09;4722888;30;20503;-91
2021/12/06 05:40:35;;;;;;;2.27;1.00;;;;;;;7.47;nan;102723.78;4723284;30;20449;-89
2021/12/06 05:44:17;;;;;;;5.03;1.37;;;;;;;7.23;nan;102702.16;4748184;30;21001;-89
2021/12/06 05:50:58;;;;;;;3.87;1.30;;;;;;;7.34;nan;102717.56;4718191;30;20434;-91
2021/12/06 05:57:09;;;;;;;6.73;2.13;;;;;;;7.43;nan;102720.44;4736074;30;20440;-89
2021/12/06 06:00:32;;;;;;;2.40;1.57;;;;;;;7.51;nan;102728.81;4718067;30;20809;-88
2021/12/06 06:03:00;;;;;;;11.43;1.80;;;;;;;7.54;nan;102750.34;4761428;29;21055;-89
2021/12/06 06:05:28;;;;;;;5.73;1.67;;;;;;;7.55;nan;102752.06;4776901;29;20454;-88
2021/12/06 06:07:56;;;;;;;9.77;2.30;;;;;;;7.51;nan;102739.69;4779703;29;20841;-90
2021/12/06 06:10:25;;;;;;;6.27;1.60;;;;;;;7.51;nan;102747.84;4779786;29;20465;-90
2021/12/06 06:12:53;;;;;;;12.40;1.40;;;;;;;7.39;nan;102732.53;4776893;29;20510;-91
2021/12/06 06:15:32;;;;;;;3.80;1.43;;;;;;;7.44;nan;102743.94;4765910;29;20819;-89
2021/12/06 06:18:02;;;;;;;4.53;1.00;;;;;;;7.44;nan;102749.38;4769200;29;20466;-89
2021/12/06 06:20:41;;;;;;;6.97;2.03;;;;;;;7.43;nan;102742.19;4776818;29;20446;-88
2021/12/06 06:23:22;;;;;;;8.10;1.40;;;;;;;7.43;nan;102753.06;4773195;30;21061;-89
2021/12/06 06:25:50;;;;;;;6.57;1.50;;;;;;;7.44;nan;102741.22;4793872;29;20989;-89
2021/12/06 06:28:23;;;;;;;7.00;1.50;;;;;;;7.41;nan;102746.88;4785912;29;20476;-88
2021/12/06 06:30:53;;;;;;;6.77;1.73;;;;;;;7.47;nan;102751.84;4792162;29;20481;-87
2021/12/06 06:33:27;;;;;;;2.20;1.20;;;;;;;7.53;nan;102754.03;4777782;29;20469;-89
2021/12/06 06:35:56;;;;;;;4.70;1.40;;;;;;;7.69;nan;102770.00;4780331;29;20519;-89
2021/12/06 06:38:44;;;;;;;7.03;1.30;;;;;;;7.77;nan;102763.94;4806273;29;20527;-90
2021/12/06 06:41:11;;;;;;;4.90;1.67;;;;;;;7.75;nan;102776.78;4821738;29;20462;-88
2021/12/06 06:43:46;;;;;;;4.00;1.30;;;;;;;7.71;nan;102754.41;4791918;29;20817;-89
2021/12/06 06:46:17;;;;;;;3.83;1.00;;;;;;;7.82;nan;102778.03;4806621;29;20461;-90
2021/12/06 06:48:45;;;;;;;6.27;1.30;;;;;;;7.84;nan;102784.22;4794537;29;20488;-88
2021/12/06 06:51:29;;;;;;;8.80;1.57;;;;;;;7.85;nan;102783.22;4795015;29;20474;-89
2021/12/06 06:54:02;;;;;;;4.67;1.37;;;;;;;7.75;nan;102758.59;4809829;29;20969;-90
2021/12/06 06:56:30;;;;;;;11.03;1.87;;;;;;;7.85;nan;102784.09;4809008;29;20462;-89
2021/12/06 06:59:46;;;;;;;;;;;;;;;;;;;;;
2021/12/06 07:02:44;;;;;;;11.60;1.40;;;;;;;7.83;nan;102758.00;4724234;30;20997;-90
2021/12/06 07:05:16;;;;;;;6.90;1.50;;;;;;;7.89;nan;102765.63;4734416;30;20496;-90
2021/12/06 07:07:44;;;;;;;7.80;1.90;;;;;;;7.96;nan;102761.41;4716575;30;20528;-90
2021/12/06 07:10:31;;;;;;;7.10;1.67;;;;;;;8.09;nan;102772.13;4702134;30;20559;-89
2021/12/06 07:13:36;;;;;;;8.20;2.47;;;;;;;8.17;nan;102770.53;4729006;30;20474;-91
2021/12/06 07:16:30;;;;;;;7.20;1.20;;;;;;;8.24;nan;102771.75;4717071;30;20476;-89
2021/12/06 07:19:24;;;;;;;5.10;1.27;;;;;;;8.26;nan;102753.41;4727147;30;20447;-89
2021/12/06 07:22:02;;;;;;;6.73;1.70;;;;;;;8.28;nan;102756.84;4662580;30;20478;-90
2021/12/06 07:24:31;;;;;;;10.60;2.00;;;;;;;8.42;nan;102785.72;4678408;30;20469;-89
2021/12/06 07:27:02;;;;;;;11.80;3.80;;;;;;;8.38;nan;102777.91;4664299;30;20469;-89
2021/12/06 07:29:33;;;;;;;11.53;3.07;;;;;;;8.29;nan;102785.81;4660041;30;20496;-89
2021/12/06 07:32:05;;;;;;;8.60;2.47;;;;;;;8.12;nan;102782.78;4667086;30;20468;-90
2021/12/06 07:34:42;;;;;;;10.50;3.10;;;;;;;8.10;nan;102792.94;4667441;30;20469;-89
2021/12/06 07:37:10;;;;;;;4.00;1.90;;;;;;;7.93;nan;102778.00;4708481;30;20809;-89
2021/12/06 07:39:39;;;;;;;11.73;2.53;;;;;;;7.91;nan;102786.28;4757080;29;20847;-89
2021/12/06 07:42:12;;;;;;;4.53;2.33;;;;;;;7.89;nan;102776.50;4794375;29;20457;-90
2021/12/06 07:44:40;;;;;;;7.90;1.93;;;;;;;7.83;nan;102766.16;4794966;29;20522;-89
2021/12/06 07:47:22;;;;;;;7.90;1.77;;;;;;;7.96;nan;102794.09;4795937;29;20459;-89
2021/12/06 07:49:50;;;;;;;13.77;1.90;;;;;;;7.99;nan;102788.38;4794262;29;20492;-89
2021/12/06 07:52:26;;;;;;;7.70;2.10;;;;;;;8.06;nan;102799.66;4796033;29;20461;-90
2021/12/06 07:54:58;;;;;;;11.97;2.13;;;;;;;8.11;nan;102798.25;4794221;29;20465;-90
2021/12/06 07:57:27;;;;;;;6.77;2.30;;;;;;;8.13;nan;102782.66;4777476;29;20450;-89
2021/12/06 07:59:56;;;;;;;8.50;2.23;;;;;;;8.19;nan;102776.72;4776158;29;20838;-89
2021/12/06 08:02:24;;;;;;;14.30;3.23;;;;;;;8.25;nan;102783.50;4774958;29;20458;-89
2021/12/06 08:05:29;;;;;;;16.57;3.70;;;;;;;8.22;nan;102792.78;4775893;29;20511;-87
2021/12/06 08:07:42;;;;;;;8.90;2.50;;;;;;;8.34;nan;102803.69;4780866;29;20458;-88
2021/12/06 08:10:10;;;;;;;8.13;2.80;;;;;;;8.36;nan;102801.69;4799019;29;20496;-88
2021/12/06 08:12:38;;;;;;;13.60;2.87;;;;;;;8.37;nan;102793.41;4767333;29;20465;-88
2021/12/06 08:15:08;;;;;;;13.37;3.53;;;;;;;8.53;nan;102795.69;4808602;29;20467;-90
2021/12/06 08:17:37;;;;;;;27.83;3.70;;;;;;;8.56;nan;102804.47;4808517;29;20461;-89
2021/12/06 08:20:06;;;;;;;12.67;4.00;;;;;;;8.64;nan;102812.00;4794251;29;20964;-89
2021/12/06 08:22:34;;;;;;;7.50;2.83;;;;;;;8.75;nan;102809.22;4808008;29;20485;-89
2021/12/06 08:25:09;;;;;;;16.37;2.90;;;;;;;8.81;nan;102805.97;4794385;29;20995;-90
2021/12/06 08:27:37;;;;;;;11.17;3.70;;;;;;;8.95;nan;102811.09;4808747;29;20465;-88
2021/12/06 08:30:29;;;;;;;9.10;2.10;;;;;;;8.97;nan;102778.25;4779931;29;20860;-89
2021/12/06 08:33:04;;;;;;;9.43;1.70;;;;;;;9.12;nan;102784.22;4795270;29;20461;-89
2021/12/06 08:35:36;;;;;;;15.47;2.57;;;;;;;9.27;nan;102780.13;4794266;29;20529;-89
2021/12/06 08:38:06;;;;;;;8.83;1.97;;;;;;;9.47;nan;102798.34;4794171;29;20460;-90
2021/12/06 08:40:35;;;;;;;9.30;1.77;;;;;;;9.46;nan;102763.84;4778036;29;20461;-89
2021/12/06 08:43:04;;;;;;;3.60;1.40;;;;;;;9.70;nan;102778.03;4810216;29;20472;-90
2021/12/06 08:49:13;;;;;;;8.53;1.83;;;;;;;9.91;nan;102763.44;4824138;29;20852;-88
2021/12/06 08:51:49;;;;;;;3.60;1.27;;;;;;;10.09;nan;102764.50;4806090;29;20465;-87
2021/12/06 08:54:22;;;;;;;13.40;2.20;;;;;;;10.28;nan;102775.47;4773342;30;20469;-88
2021/12/06 08:56:51;;;;;;;5.73;2.10;;;;;;;10.47;nan;102773.75;4752089;30;20465;-89
2021/12/06 08:59:19;;;;;;;6.03;1.37;;;;;;;10.66;nan;102777.38;4768807;30;20461;-88
2021/12/06 09:01:46;;;;;;;5.53;1.70;;;;;;;10.81;nan;102766.84;4775444;30;20467;-91
2021/12/06 09:04:37;;;;;;;5.83;1.33;;;;;;;11.02;nan;102778.47;4758429;30;20452;-88
2021/12/06 09:07:12;;;;;;;12.67;1.60;;;;;;;11.12;nan;102780.34;4756186;30;20508;-88
2021/12/06 09:09:55;;;;;;;7.97;1.60;;;;;;;11.29;nan;102794.13;4784245;30;20487;-89
2021/12/06 09:12:26;;;;;;;8.00;1.50;;;;;;;11.36;nan;102777.94;4767634;30;21035;-90
2021/12/06 09:19:05;;;;;;;4.27;1.07;;;;;;;11.48;nan;102793.19;4717904;30;20488;-86
2021/12/06 09:45:58;;;;;;;7.13;1.10;;;;;;;;;;4683174;30;20454;-84
2021/12/06 10:40:34;;;;;;;2.57;1.00;;;;;;;;;;4810965;29;20445;-86
2021/12/06 10:43:34;;;;;;;4.97;0.80;;;;;;;;;;4822605;29;20445;-85
2021/12/06 10:49:45;;;;;;;11.23;1.37;;;;;;;;;;4780521;29;20491;-82
2021/12/06 10:52:32;;;;;;;6.23;1.20;;;;;;;;;;4807749;29;21306;-85
2021/12/06 10:55:01;;;;;;;3.83;1.10;;;;;;;;;;4823293;29;20865;-85
2021/12/06 10:57:51;;;;;;;2.20;0.63;;;;;;;;;;4809180;29;20945;-86
2021/12/06 11:03:55;;;;;;;1.67;0.40;;;;;;;;;;4825294;29;20405;-84
2021/12/06 11:07:00;;;;;;;3.23;0.40;;;;;;;;;;4805878;29;20457;-86
2021/12/06 11:09:41;;;;;;;8.57;0.90;;;;;;;;;;4834832;29;20485;-86
2021/12/06 11:12:11;;;;;;;1.93;0.50;;;;;;;;;;4812018;29;20452;-86
2021/12/06 11:15:34;;;;;;;4.00;0.70;;;;;;;;;;4827237;29;20448;-86
2021/12/06 11:18:00;;;;;;;3.67;0.50;;;;;;;;;;4817383;29;20518;-85
2021/12/06 11:31:18;;;;;;;4.30;0.93;;;;;;;;;;4786253;29;20903;-85
2021/12/06 11:34:00;;;;;;;3.90;0.90;;;;;;;;;;4795974;29;20550;-85
2021/12/06 11:36:32;;;;;;;4.83;0.73;;;;;;;;;;4771951;30;20957;-83
2021/12/06 11:39:13;;;;;;;2.60;0.77;;;;;;;;;;4785540;30;20982;-87
2021/12/06 11:41:43;;;;;;;3.57;0.70;;;;;;;;;;4789721;30;20451;-89
2021/12/06 11:44:26;;;;;;;4.20;0.60;;;;;;;;;;4774061;29;20500;-92
2021/12/06 11:46:55;;;;;;;5.07;1.07;;;;;;;;;;4775114;29;20969;-84
2021/12/06 11:49:27;;;;;;;2.97;0.57;;;;;;;;;;4786879;29;20479;-86
2021/12/06 11:51:54;;;;;;;5.53;1.27;;;;;;;;;;4786305;30;20531;-86
2021/12/06 11:54:24;;;;;;;3.00;0.70;;;;;;;;;;4771117;30;20455;-85
2021/12/06 11:56:54;;;;;;;1.60;0.50;;;;;;;;;;4771502;30;20955;-85
2021/12/06 11:59:21;;;;;;;3.27;0.63;;;;;;;;;;4770633;30;20457;-85
2021/12/06 12:01:51;;;;;;;2.63;0.60;;;;;;;;;;4787691;29;20500;-85
2021/12/06 12:04:26;;;;;;;1.97;0.70;;;;;;;;;;4808019;29;20452;-85
2021/12/06 12:06:57;;;;;;;3.53;0.70;;;;;;;;;;4798581;29;20529;-85
2021/12/06 12:09:31;;;;;;;2.57;0.70;;;;;;;;;;4809369;29;20500;-85
2021/12/06 12:11:58;;;;;;;4.23;0.70;;;;;;;;;;4821054;29;20449;-85
2021/12/06 12:14:30;;;;;;;7.03;1.77;;;;;;;;;;4820050;29;20969;-85
2021/12/06 12:16:58;;;;;;;3.83;0.70;;;;;;;;;;4809561;29;20460;-85
2021/12/06 12:19:28;;;;;;;1.50;0.40;;;;;;;;;;4807166;29;20460;-85
2021/12/06 12:22:03;;;;;;;4.63;0.67;;;;;;;;;;4820756;29;20878;-85
2021/12/06 12:24:33;;;;;;;3.77;0.60;;;;;;;;;;4822440;29;20454;-85
2021/12/06 12:27:14;;;;;;;3.17;0.60;;;;;;;;;;4823474;29;20479;-89
2021/12/06 12:36:34;;;;;;;3.57;0.70;;;;;;;;;;4817130;29;20485;-91
2021/12/06 12:40:20;;;;;;;2.00;0.60;;;;;;;;;;4825117;29;20868;-89
2021/12/06 12:42:55;;;;;;;3.57;0.60;;;;;;;;;;4819787;29;20583;-88
2021/12/06 12:46:17;;;;;;;3.43;0.67;;;;;;;;;;4813267;29;20932;-87
2021/12/06 12:49:13;;;;;;;2.00;0.50;;;;;;;;;;4786589;29;21109;-88
2021/12/06 12:52:02;;;;;;;5.33;1.53;;;;;;;;;;4805666;29;20445;-88
2021/12/06 12:54:57;;;;;;;1.67;0.87;;;;;;;;;;4751721;30;20449;-86
2021/12/06 14:56:53;;;;;;;5.90;0.80;;;;;;;17.37;nan;102491.84;4805395;29;20938;-85
2021/12/06 14:59:25;;;;;;;3.80;1.30;;;;;;;17.46;nan;102483.25;4790632;29;20460;-85
2021/12/06 15:01:54;;;;;;;3.67;0.77;;;;;;;17.45;nan;102494.50;4759717;30;20828;-86
2021/12/06 15:04:39;;;;;;;13.93;1.10;;;;;;;17.59;nan;102490.81;4757219;29;20457;-84
2021/12/06 15:07:12;;;;;;;3.83;0.80;;;;;;;17.64;nan;102482.81;4777679;29;20498;-85
2021/12/06 15:09:41;;;;;;;6.23;1.43;;;;;;;17.67;nan;102476.91;4768587;29;20490;-85
2021/12/06 15:12:08;;;;;;;7.20;1.00;;;;;;;17.61;nan;102472.13;4772260;30;20453;-84
2021/12/06 15:14:36;;;;;;;4.90;1.00;;;;;;;17.59;nan;102465.91;4798366;29;20482;-84
2021/12/06 15:17:12;;;;;;;5.40;0.67;;;;;;;17.64;nan;102488.34;4781844;29;20469;-84
2021/12/06 15:19:41;;;;;;;3.83;0.80;;;;;;;17.54;nan;102479.47;4796281;29;21143;-85
2021/12/06 15:22:09;;;;;;;5.23;1.60;;;;;;;17.48;nan;102483.06;4772750;30;20457;-85
2021/12/06 15:24:37;;;;;;;7.50;1.57;;;;;;;17.46;nan;102480.47;4770312;29;20465;-84
2021/12/06 15:27:18;;;;;;;3.57;0.70;;;;;;;17.42;nan;102481.06;4762918;30;20471;-85
2021/12/06 15:29:48;;;;;;;4.03;0.90;;;;;;;17.36;nan;102485.47;4775775;30;20498;-85
2021/12/06 15:32:18;;;;;;;8.03;1.13;;;;;;;17.33;nan;102480.31;4768645;30;20978;-85
2021/12/06 15:34:47;;;;;;;4.73;0.80;;;;;;;17.25;nan;102489.59;4772703;30;20455;-85
2021/12/06 15:37:15;;;;;;;7.13;0.60;;;;;;;17.19;nan;102506.09;4778871;29;20994;-87
2021/12/06 15:39:48;;;;;;;6.00;0.97;;;;;;;17.15;nan;102500.09;4752942;29;20447;-86
2021/12/06 15:42:19;;;;;;;18.20;1.23;;;;;;;17.16;nan;102504.56;4787158;30;20451;-83
2021/12/06 15:44:50;;;;;;;2.10;0.70;;;;;;;17.10;nan;102512.81;4745027;29;20470;-85
2021/12/06 15:47:45;;;;;;;4.73;0.93;;;;;;;16.97;nan;102496.03;4788108;29;20476;-84
2021/12/06 15:50:17;;;;;;;2.20;0.93;;;;;;;17.05;nan;102507.00;4760811;30;20494;-85
2021/12/06 15:52:48;;;;;;;5.37;0.80;;;;;;;16.89;nan;102499.78;4772940;29;20489;-85
2021/12/06 15:55:27;;;;;;;2.37;0.60;;;;;;;16.74;nan;102497.03;4812357;29;21004;-84
2021/12/06 15:58:18;;;;;;;5.77;0.97;;;;;;;16.59;nan;102483.19;4778495;29;20473;-86
2021/12/06 16:01:10;;;;;;;7.77;0.93;;;;;;;16.61;nan;102480.25;4793004;29;20519;-85
2021/12/06 16:03:45;;;;;;;11.40;1.17;;;;;;;16.66;nan;102491.63;4805092;29;20460;-84
2021/12/06 16:06:25;;;;;;;4.30;1.00;;;;;;;16.72;nan;102499.16;4809766;29;20893;-84
2021/12/06 16:08:55;;;;;;;10.70;0.90;;;;;;;16.59;nan;102488.72;4791828;29;20464;-85
2021/12/06 16:11:25;;;;;;;5.30;0.97;;;;;;;16.49;nan;102484.53;4798306;29;20482;-86
2021/12/06 16:13:53;;;;;;;4.53;1.00;;;;;;;16.45;nan;102491.50;4781614;29;20490;-86
2021/12/06 16:16:21;;;;;;;5.43;0.80;;;;;;;16.42;nan;102502.91;4790005;29;20454;-86
2021/12/06 16:18:51;;;;;;;9.40;1.13;;;;;;;16.26;nan;102490.13;4792130;29;20511;-85
2021/12/06 16:21:32;;;;;;;4.83;0.90;;;;;;;16.19;nan;102491.94;4786367;29;20453;-87
2021/12/06 16:24:02;;;;;;;6.70;1.00;;;;;;;16.10;nan;102487.56;4769968;29;20499;-88
2021/12/06 16:26:34;;;;;;;3.53;0.83;;;;;;;16.03;nan;102483.81;4789494;29;20465;-87
2021/12/06 16:29:06;;;;;;;5.80;1.20;;;;;;;15.94;nan;102479.44;4793766;29;20796;-88
2021/12/06 16:31:38;;;;;;;2.23;1.00;;;;;;;15.92;nan;102498.06;4823293;29;20496;-87
2021/12/06 16:34:12;;;;;;;5.23;0.77;;;;;;;15.83;nan;102506.41;4792985;29;20470;-87
2021/12/06 16:36:47;;;;;;;5.53;0.90;;;;;;;15.68;nan;102499.97;4824012;29;20949;-87
2021/12/06 16:39:58;;;;;;;4.93;0.50;;;;;;;15.54;nan;102503.50;4809556;29;20457;-88
2021/12/06 16:42:33;;;;;;;3.67;0.97;;;;;;;15.43;nan;102495.66;4811373;29;20457;-88
2021/12/06 16:45:12;;;;;;;6.70;1.30;;;;;;;15.33;nan;102509.69;4793324;29;20464;-88
2021/12/06 16:47:43;;;;;;;6.03;0.90;;;;;;;15.22;nan;102504.56;4794157;29;20518;-88
2021/12/06 17:06:03;;;;;;;7.17;2.00;;;;;;;14.72;nan;102507.75;4714871;30;20495;-88
2021/12/06 17:08:47;;;;;;;4.20;1.07;;;;;;;14.65;nan;102498.47;4668993;30;20470;-89
2021/12/06 17:53:12;;;;;;;6.70;1.10;;;;;;;13.89;nan;102501.69;4823445;29;20433;-88